createdAt,value
2022-11-08T00:00:56.876Z,100.00
2022-11-08T00:03:26.242Z,100.00
2022-11-08T00:06:14.155Z,100.00
2022-11-08T00:09:01.103Z,100.00
2022-11-08T00:11:49.519Z,100.00
2022-11-08T00:14:18.991Z,100.00
2022-11-08T00:16:48.355Z,100.00
2022-11-08T00:19:17.858Z,100.00
2022-11-08T00:21:47.248Z,100.00
2022-11-08T00:24:16.601Z,100.00
2022-11-08T00:26:47.479Z,100.00
2022-11-08T00:29:17.197Z,100.00
2022-11-08T00:31:46.605Z,100.00
2022-11-08T00:34:16.062Z,100.00
2022-11-08T00:36:45.437Z,100.00
2022-11-08T00:39:14.965Z,100.00
2022-11-08T00:41:45.710Z,100.00
2022-11-08T00:44:15.096Z,100.00
2022-11-08T00:46:44.796Z,100.00
2022-11-08T00:49:14.206Z,100.00
2022-11-08T00:51:43.823Z,100.00
2022-11-08T00:54:18.975Z,100.00
2022-11-08T00:56:50.715Z,100.00
2022-11-08T00:59:21.156Z,100.00
2022-11-08T01:01:50.867Z,100.00
2022-11-08T01:04:21.312Z,100.00
2022-11-08T01:06:50.809Z,100.00
2022-11-08T01:09:20.211Z,100.00
2022-11-08T01:11:51.072Z,100.00
2022-11-08T01:14:20.471Z,100.00
2022-11-08T01:16:49.873Z,100.00
2022-11-08T01:19:19.243Z,100.00
2022-11-08T01:21:48.635Z,100.00
2022-11-08T01:24:18.990Z,100.00
2022-11-08T01:26:51.733Z,100.00
2022-11-08T01:29:21.227Z,100.00
2022-11-08T01:31:50.599Z,100.00
2022-11-08T01:34:19.989Z,100.00
2022-11-08T01:36:49.395Z,100.00
2022-11-08T01:39:18.822Z,100.00
2022-11-08T01:41:48.216Z,100.00
2022-11-08T01:44:21.681Z,100.00
2022-11-08T01:46:51.094Z,100.00
2022-11-08T01:49:44.472Z,100.00
2022-11-08T01:52:30.131Z,100.00
2022-11-08T01:55:13.736Z,100.00
2022-11-08T01:57:50.588Z,100.00
2022-11-08T02:00:21.737Z,100.00
2022-11-08T02:03:00.979Z,100.00
2022-11-08T02:05:31.793Z,100.00
2022-11-08T02:08:09.399Z,100.00
2022-11-08T02:10:42.334Z,100.00
2022-11-08T02:13:17.375Z,100.00
2022-11-08T02:15:48.556Z,100.00
2022-11-08T02:18:23.598Z,100.00
2022-11-08T02:21:09.837Z,100.00
2022-11-08T02:23:48.110Z,100.00
2022-11-08T02:26:20.610Z,100.00
2022-11-08T02:28:51.164Z,100.00
2022-11-08T02:31:21.300Z,100.00
2022-11-08T02:33:51.311Z,100.00
2022-11-08T02:36:24.226Z,100.00
2022-11-08T02:38:58.568Z,100.00
2022-11-08T02:41:27.919Z,100.00
2022-11-08T02:43:58.902Z,100.00
2022-11-08T02:46:28.368Z,100.00
2022-11-08T02:48:57.756Z,100.00
2022-11-08T02:51:27.135Z,100.00
2022-11-08T02:53:57.977Z,100.00
2022-11-08T02:56:27.360Z,100.00
2022-11-08T02:58:56.722Z,100.00
2022-11-08T03:01:27.871Z,100.00
2022-11-08T03:03:57.322Z,100.00
2022-11-08T03:06:26.864Z,100.00
2022-11-08T03:08:57.594Z,100.00
2022-11-08T03:11:27.024Z,100.00
2022-11-08T03:13:56.442Z,100.00
2022-11-08T03:16:26.154Z,100.00
2022-11-08T03:18:55.548Z,100.00
2022-11-08T03:21:24.958Z,100.00
2022-11-08T03:23:54.356Z,100.00
2022-11-08T03:26:25.119Z,100.00
2022-11-08T03:28:56.264Z,100.00
2022-11-08T03:31:25.927Z,100.00
2022-11-08T03:33:55.667Z,100.00
2022-11-08T03:36:25.520Z,100.00
2022-11-08T03:38:54.939Z,100.00
2022-11-08T03:41:26.331Z,100.00
2022-11-08T03:43:56.148Z,100.00
2022-11-08T03:46:25.630Z,100.00
2022-11-08T03:48:55.549Z,100.00
2022-11-08T03:51:25.218Z,100.00
2022-11-08T03:53:54.709Z,100.00
2022-11-08T03:56:25.702Z,100.00
2022-11-08T03:58:55.428Z,100.00
2022-11-08T04:01:28.238Z,100.00
2022-11-08T04:03:57.979Z,100.00
2022-11-08T04:06:27.597Z,100.00
2022-11-08T04:08:57.035Z,100.00
2022-11-08T04:11:45.455Z,100.00
2022-11-08T04:14:32.388Z,100.00
2022-11-08T04:17:01.779Z,100.00
2022-11-08T04:19:48.624Z,100.00
2022-11-08T04:22:18.331Z,100.00
2022-11-08T04:24:47.933Z,100.00
2022-11-08T04:27:18.919Z,100.00
2022-11-08T04:29:48.297Z,100.00
2022-11-08T04:32:17.858Z,100.00
2022-11-08T04:34:47.432Z,100.00
2022-11-08T04:37:16.855Z,100.00
2022-11-08T04:39:46.322Z,100.00
2022-11-08T04:42:15.755Z,100.00
2022-11-08T04:44:46.464Z,100.00
2022-11-08T04:47:15.948Z,100.00
2022-11-08T04:49:45.428Z,100.00
2022-11-08T04:52:16.531Z,100.00
2022-11-08T04:54:45.920Z,100.00
2022-11-08T04:57:18.376Z,100.00
2022-11-08T04:59:49.587Z,100.00
2022-11-08T05:02:19.199Z,100.00
2022-11-08T05:04:48.827Z,100.00
2022-11-08T05:07:18.343Z,100.00
2022-11-08T05:09:47.754Z,100.00
2022-11-08T05:12:17.277Z,100.00
2022-11-08T05:14:47.999Z,100.00
2022-11-08T05:17:18.480Z,100.00
2022-11-08T05:20:05.343Z,100.00
2022-11-08T05:22:52.320Z,100.00
2022-11-08T05:25:21.715Z,100.00
2022-11-08T05:27:51.083Z,100.00
2022-11-08T05:30:21.878Z,100.00
2022-11-08T05:32:52.826Z,100.00
2022-11-08T05:35:22.948Z,100.00
2022-11-08T05:37:52.331Z,100.00
2022-11-08T05:40:21.843Z,100.00
2022-11-08T05:42:51.288Z,100.00
2022-11-08T05:45:22.783Z,100.00
2022-11-08T05:47:52.155Z,100.00
2022-11-08T05:50:21.768Z,100.00
2022-11-08T05:52:52.044Z,100.00
2022-11-08T05:55:21.537Z,100.00
2022-11-08T05:57:51.013Z,100.00
2022-11-08T06:00:23.111Z,100.00
2022-11-08T06:02:52.537Z,100.00
2022-11-08T06:05:22.143Z,100.00
2022-11-08T06:07:54.021Z,100.00
2022-11-08T06:10:23.526Z,100.00
2022-11-08T06:12:53.287Z,100.00
2022-11-08T06:15:23.983Z,100.00
2022-11-08T06:17:53.921Z,100.00
2022-11-08T06:20:23.595Z,100.00
2022-11-08T06:22:53.056Z,100.00
2022-11-08T06:25:22.840Z,100.00
2022-11-08T06:27:52.389Z,100.00
2022-11-08T06:30:23.186Z,100.00
2022-11-08T06:32:52.559Z,100.00
2022-11-08T06:35:21.996Z,100.00
2022-11-08T06:37:51.364Z,100.00
2022-11-08T06:40:23.811Z,100.00
2022-11-08T06:42:54.406Z,100.00
2022-11-08T06:45:25.444Z,100.00
2022-11-08T06:47:59.143Z,100.00
2022-11-08T06:50:29.840Z,100.00
2022-11-08T06:53:00.297Z,100.00
2022-11-08T06:55:30.423Z,100.00
2022-11-08T06:57:59.989Z,100.00
2022-11-08T07:00:31.291Z,100.00
2022-11-08T07:03:04.573Z,100.00
2022-11-08T07:05:36.516Z,100.00
2022-11-08T07:08:06.684Z,100.00
2022-11-08T07:10:36.453Z,100.00
2022-11-08T07:13:10.530Z,100.00
2022-11-08T07:15:42.697Z,100.00
2022-11-08T07:18:15.571Z,100.00
2022-11-08T07:20:45.119Z,100.00
2022-11-08T07:23:15.115Z,100.00
2022-11-08T07:25:44.746Z,100.00
2022-11-08T07:28:18.428Z,100.00
2022-11-08T07:30:50.603Z,100.00
2022-11-08T07:33:20.417Z,100.00
2022-11-08T07:35:50.104Z,100.00
2022-11-08T07:38:19.577Z,100.00
2022-11-08T07:40:52.556Z,100.00
2022-11-08T07:43:21.999Z,100.00
2022-11-08T07:45:57.484Z,100.00
2022-11-08T07:48:31.558Z,100.00
2022-11-08T07:51:01.213Z,100.00
2022-11-08T07:53:31.255Z,100.00
2022-11-08T07:56:00.662Z,100.00
2022-11-08T07:58:30.067Z,100.00
2022-11-08T08:01:04.670Z,100.00
2022-11-08T08:03:34.388Z,100.00
2022-11-08T08:06:03.886Z,100.00
2022-11-08T08:08:33.338Z,100.00
2022-11-08T08:11:05.024Z,100.00
2022-11-08T08:13:34.486Z,100.00
2022-11-08T08:16:06.350Z,100.00
2022-11-08T08:18:36.519Z,100.00
2022-11-08T08:21:06.082Z,100.00
2022-11-08T08:23:35.482Z,100.00
2022-11-08T08:26:04.904Z,100.00
2022-11-08T08:28:34.579Z,100.00
2022-11-08T08:31:07.960Z,100.00
2022-11-08T08:33:38.118Z,100.00
2022-11-08T08:36:08.919Z,100.00
2022-11-08T08:38:44.084Z,100.00
2022-11-08T08:41:14.113Z,100.00
2022-11-08T08:43:43.523Z,100.00
2022-11-08T08:46:20.987Z,100.00
2022-11-08T08:48:50.675Z,100.00
2022-11-08T08:51:20.324Z,100.00
2022-11-08T08:53:49.797Z,100.00
2022-11-08T08:56:19.209Z,100.00
2022-11-08T09:01:40.137Z,100.00
2022-11-08T09:04:09.886Z,100.00
2022-11-08T09:06:39.340Z,100.00
2022-11-08T09:09:08.841Z,100.00
2022-11-08T09:11:38.269Z,100.00
2022-11-08T09:14:07.682Z,100.00
2022-11-08T09:16:38.739Z,100.00
2022-11-08T09:19:08.146Z,100.00
2022-11-08T09:21:37.626Z,100.00
2022-11-08T09:24:08.044Z,100.00
2022-11-08T09:26:37.420Z,100.00
2022-11-08T09:29:06.790Z,100.00
2022-11-08T09:31:36.194Z,100.00
2022-11-08T09:34:06.981Z,100.00
2022-11-08T09:36:36.432Z,100.00
2022-11-08T09:39:05.939Z,100.00
2022-11-08T09:42:22.180Z,100.00
2022-11-08T09:45:27.509Z,100.00
2022-11-08T09:48:05.244Z,100.00
2022-11-08T09:50:43.022Z,100.00
2022-11-08T09:53:20.491Z,100.00
2022-11-08T09:55:56.531Z,100.00
2022-11-08T09:58:35.723Z,100.00
2022-11-08T10:01:06.251Z,100.00
2022-11-08T10:03:35.630Z,100.00
2022-11-08T10:06:39.903Z,100.00
2022-11-08T10:09:39.374Z,100.00
2022-11-08T10:12:22.359Z,100.00
2022-11-08T10:15:15.899Z,100.00
2022-11-08T10:18:11.477Z,100.00
2022-11-08T10:21:00.911Z,100.00
2022-11-08T10:23:44.641Z,100.00
2022-11-08T10:26:24.108Z,100.00
2022-11-08T10:29:04.593Z,100.00
2022-11-08T10:31:36.927Z,100.00
2022-11-08T10:34:15.941Z,100.00
2022-11-08T10:36:49.447Z,100.00
2022-11-08T10:39:26.118Z,100.00
2022-11-08T10:42:06.261Z,100.00
2022-11-08T10:44:36.000Z,100.00
2022-11-08T10:47:11.868Z,100.00
2022-11-08T10:49:44.041Z,100.00
2022-11-08T10:52:25.724Z,100.00
2022-11-08T10:54:58.429Z,100.00
2022-11-08T10:57:39.749Z,100.00
2022-11-08T11:00:31.321Z,100.00
2022-11-08T11:03:03.542Z,100.00
2022-11-08T11:05:37.385Z,100.00
2022-11-08T11:08:19.182Z,100.00
2022-11-08T11:10:51.421Z,100.00
2022-11-08T11:13:24.997Z,100.00
2022-11-08T11:16:03.067Z,100.00
2022-11-08T11:18:36.259Z,100.00
2022-11-08T11:21:13.314Z,100.00
2022-11-08T11:23:46.811Z,100.00
2022-11-08T11:26:31.976Z,100.00
2022-11-08T11:29:19.195Z,100.00
2022-11-08T11:31:54.014Z,100.00
2022-11-08T11:34:49.850Z,100.00
2022-11-08T11:37:40.836Z,100.00
2022-11-08T11:40:20.920Z,100.00
2022-11-08T11:43:03.293Z,100.00
2022-11-08T11:45:43.096Z,100.00
2022-11-08T11:48:19.519Z,100.00
2022-11-08T11:50:51.555Z,100.00
2022-11-08T11:53:25.729Z,100.00
2022-11-08T11:56:46.719Z,100.00
2022-11-08T11:59:53.379Z,100.00
2022-11-08T12:03:17.869Z,100.00
2022-11-08T12:06:21.191Z,100.00
2022-11-08T12:09:10.476Z,100.00
2022-11-08T12:11:56.215Z,100.00
2022-11-08T12:14:50.113Z,100.00
2022-11-08T12:17:53.256Z,100.00
2022-11-08T12:20:40.319Z,100.00
2022-11-08T12:23:42.151Z,100.00
2022-11-08T12:26:22.571Z,100.00
2022-11-08T12:29:12.784Z,100.00
2022-11-08T12:32:01.039Z,100.00
2022-11-08T12:34:46.120Z,100.00
2022-11-08T12:37:32.641Z,100.00
2022-11-08T12:40:07.014Z,100.00
2022-11-08T12:43:02.388Z,100.00
2022-11-08T12:45:50.741Z,100.00
2022-11-08T12:49:07.012Z,100.00
2022-11-08T12:51:58.020Z,100.00
2022-11-08T12:54:36.689Z,100.00
2022-11-08T12:57:13.007Z,100.00
2022-11-08T12:59:46.760Z,100.00
2022-11-08T13:02:23.507Z,100.00
2022-11-08T13:05:04.951Z,100.00
2022-11-08T13:07:46.583Z,100.00
2022-11-08T13:10:35.868Z,89.38
2022-11-08T13:13:24.554Z,87.37
2022-11-08T13:16:15.728Z,90.59
2022-11-08T13:18:50.334Z,91.03
2022-11-08T13:21:41.084Z,86.41
2022-11-08T13:24:46.769Z,88.19
2022-11-08T13:27:37.007Z,87.80
2022-11-08T13:30:39.714Z,84.21
2022-11-08T13:33:26.652Z,80.96
2022-11-08T13:36:12.905Z,77.89
2022-11-08T13:38:58.308Z,79.62
2022-11-08T13:41:28.311Z,71.64
2022-11-08T13:43:59.685Z,73.28
2022-11-08T13:46:49.900Z,65.72
2022-11-08T13:49:24.143Z,68.15
2022-11-08T13:52:47.046Z,66.41
2022-11-08T13:55:47.267Z,66.98
2022-11-08T13:58:35.264Z,68.41
2022-11-08T14:01:08.477Z,68.42
2022-11-08T14:03:58.641Z,68.40
2022-11-08T14:06:36.678Z,69.43
2022-11-08T14:09:22.627Z,71.85
2022-11-08T14:12:02.176Z,72.48
2022-11-08T14:14:49.168Z,74.43
2022-11-08T14:17:41.880Z,79.16
2022-11-08T14:20:33.151Z,78.50
2022-11-08T14:23:21.124Z,88.21
2022-11-08T14:25:57.365Z,94.91
2022-11-08T14:28:32.506Z,96.44
2022-11-08T14:31:05.649Z,99.68
2022-11-08T14:33:43.045Z,100.00
2022-11-08T14:36:19.607Z,100.00
2022-11-08T14:38:57.315Z,100.00
2022-11-08T14:41:30.504Z,100.00
2022-11-08T14:44:04.165Z,100.00
2022-11-08T14:46:38.914Z,100.00
2022-11-08T14:49:21.464Z,100.00
2022-11-08T14:52:13.610Z,96.99
2022-11-08T14:54:47.175Z,97.80
2022-11-08T14:57:38.147Z,98.99
2022-11-08T15:00:19.961Z,94.97
2022-11-08T15:02:53.987Z,89.03
2022-11-08T15:05:38.506Z,85.05
2022-11-08T15:08:22.126Z,86.47
2022-11-08T15:11:02.142Z,90.62
2022-11-08T15:13:40.320Z,93.56
2022-11-08T15:16:12.512Z,97.33
2022-11-08T15:18:44.743Z,100.00
2022-11-08T15:21:30.078Z,100.00
2022-11-08T15:24:15.999Z,100.00
2022-11-08T15:27:05.544Z,100.00
2022-11-08T15:29:53.058Z,100.00
2022-11-08T15:32:24.179Z,100.00
2022-11-08T15:34:58.433Z,100.00
2022-11-08T15:37:36.766Z,100.00
2022-11-08T15:40:18.773Z,100.00
2022-11-08T15:42:50.779Z,100.00
2022-11-08T15:45:32.375Z,100.00
2022-11-08T15:48:20.034Z,100.00
2022-11-08T15:50:50.692Z,100.00
2022-11-08T15:53:21.919Z,100.00
2022-11-08T15:55:55.001Z,100.00
2022-11-08T15:58:28.160Z,100.00
2022-11-08T16:01:01.440Z,100.00
2022-11-08T16:03:33.640Z,100.00
2022-11-08T16:06:03.034Z,100.00
2022-11-08T16:08:32.615Z,100.00
2022-11-08T16:11:02.522Z,100.00
2022-11-08T16:13:36.176Z,100.00
2022-11-08T16:16:13.085Z,100.00
2022-11-08T16:18:44.316Z,100.00
2022-11-08T16:21:15.533Z,100.00
2022-11-08T16:23:44.997Z,100.00
2022-11-08T16:26:20.272Z,100.00
2022-11-08T16:28:49.860Z,100.00
2022-11-08T16:31:19.468Z,100.00
2022-11-08T16:33:53.910Z,100.00
2022-11-08T16:36:27.599Z,100.00
2022-11-08T16:38:59.351Z,100.00
2022-11-08T16:41:28.886Z,100.00
2022-11-08T16:44:00.174Z,100.00
2022-11-08T16:46:30.514Z,100.00
2022-11-08T16:49:01.504Z,100.00
2022-11-08T16:51:30.886Z,100.00
2022-11-08T16:54:03.388Z,100.00
2022-11-08T16:56:32.855Z,100.00
2022-11-08T16:59:02.180Z,100.00
2022-11-08T17:01:34.853Z,100.00
2022-11-08T17:04:06.064Z,100.00
2022-11-08T17:06:35.593Z,100.00
2022-11-08T17:09:05.438Z,100.00
2022-11-08T17:11:34.930Z,100.00
2022-11-08T17:14:04.803Z,100.00
2022-11-08T17:16:34.441Z,100.00
2022-11-08T17:19:06.439Z,100.00
2022-11-08T17:21:44.661Z,100.00
2022-11-08T17:24:21.317Z,100.00
2022-11-08T17:26:52.003Z,100.00
2022-11-08T17:29:21.651Z,100.00
2022-11-08T17:31:51.627Z,100.00
2022-11-08T17:34:22.383Z,100.00
2022-11-08T17:36:53.009Z,100.00
2022-11-08T17:39:22.384Z,100.00
2022-11-08T17:41:51.758Z,100.00
2022-11-08T17:44:21.166Z,100.00
2022-11-08T17:46:50.657Z,100.00
2022-11-08T17:49:22.298Z,100.00
2022-11-08T17:51:51.698Z,100.00
2022-11-08T17:54:21.126Z,100.00
2022-11-08T17:56:50.619Z,100.00
2022-11-08T17:59:20.661Z,100.00
2022-11-08T18:01:50.916Z,100.00
2022-11-08T18:04:21.944Z,100.00
2022-11-08T18:06:51.369Z,100.00
2022-11-08T18:09:21.051Z,100.00
2022-11-08T18:11:50.836Z,100.00
2022-11-08T18:14:28.264Z,100.00
2022-11-08T18:16:59.698Z,100.00
2022-11-08T18:19:30.474Z,100.00
2022-11-08T18:22:00.347Z,100.00
2022-11-08T18:24:29.763Z,100.00
2022-11-08T18:26:59.934Z,100.00
2022-11-08T18:29:29.348Z,100.00
2022-11-08T18:31:59.191Z,100.00
2022-11-08T18:34:30.579Z,100.00
2022-11-08T18:36:59.927Z,100.00
2022-11-08T18:39:29.314Z,100.00
2022-11-08T18:41:58.674Z,100.00
2022-11-08T18:44:28.049Z,100.00
2022-11-08T18:46:58.230Z,100.00
2022-11-08T18:49:30.911Z,100.00
2022-11-08T18:52:00.521Z,100.00
2022-11-08T18:54:29.874Z,100.00
2022-11-08T18:56:59.241Z,100.00
2022-11-08T18:59:28.643Z,100.00
2022-11-08T19:01:58.116Z,100.00
2022-11-08T19:04:27.732Z,100.00
2022-11-08T19:06:58.547Z,100.00
2022-11-08T19:09:27.911Z,100.00
2022-11-08T19:12:01.689Z,100.00
2022-11-08T19:14:35.316Z,100.00
2022-11-08T19:17:04.763Z,100.00
2022-11-08T19:19:34.140Z,100.00
2022-11-08T19:22:05.344Z,100.00
2022-11-08T19:24:34.721Z,100.00
2022-11-08T19:27:04.269Z,100.00
2022-11-08T19:29:33.718Z,100.00
2022-11-08T19:32:03.087Z,100.00
2022-11-08T19:34:33.548Z,100.00
2022-11-08T19:37:04.399Z,100.00
2022-11-08T19:39:33.834Z,100.00
2022-11-08T19:42:03.348Z,100.00
2022-11-08T19:44:32.771Z,100.00
2022-11-08T19:47:02.146Z,100.00
2022-11-08T19:49:31.819Z,100.00
2022-11-08T19:52:01.197Z,100.00
2022-11-08T19:54:31.969Z,100.00
2022-11-08T19:57:05.775Z,100.00
2022-11-08T19:59:35.774Z,100.00
2022-11-08T20:02:05.308Z,100.00
2022-11-08T20:04:34.942Z,100.00
2022-11-08T20:07:04.415Z,100.00
2022-11-08T20:09:35.711Z,100.00
2022-11-08T20:12:05.690Z,100.00
2022-11-08T20:14:35.299Z,100.00
2022-11-08T20:17:04.704Z,100.00
2022-11-08T20:19:34.060Z,100.00
2022-11-08T20:22:03.477Z,100.00
2022-11-08T20:24:34.419Z,100.00
2022-11-08T20:27:03.889Z,100.00
2022-11-08T20:29:33.555Z,100.00
2022-11-08T20:32:03.755Z,100.00
2022-11-08T20:34:33.226Z,100.00
2022-11-08T20:37:02.616Z,100.00
2022-11-08T20:39:33.576Z,100.00
2022-11-08T20:42:04.638Z,100.00
2022-11-08T20:44:34.013Z,100.00
2022-11-08T20:47:06.640Z,100.00
2022-11-08T20:49:36.553Z,100.00
2022-11-08T20:52:05.958Z,100.00
2022-11-08T20:54:38.791Z,100.00
2022-11-08T20:57:12.139Z,100.00
2022-11-08T20:59:41.526Z,100.00
2022-11-08T21:02:12.695Z,100.00
2022-11-08T21:04:42.212Z,100.00
2022-11-08T21:10:20.267Z,100.00
2022-11-08T21:12:52.701Z,100.00
2022-11-08T21:15:26.890Z,100.00
2022-11-08T21:17:56.677Z,100.00
2022-11-08T21:20:26.771Z,100.00
2022-11-08T21:22:56.312Z,100.00
2022-11-08T21:25:25.783Z,100.00
2022-11-08T21:27:56.605Z,100.00
2022-11-08T21:30:26.130Z,100.00
2022-11-08T21:32:55.540Z,100.00
2022-11-08T21:35:25.003Z,100.00
2022-11-08T21:37:54.420Z,100.00
2022-11-08T21:40:23.818Z,100.00
2022-11-08T21:42:53.218Z,100.00
2022-11-08T21:45:26.013Z,100.00
2022-11-08T21:47:56.333Z,100.00
2022-11-08T21:50:26.642Z,100.00
2022-11-08T21:52:56.227Z,100.00
2022-11-08T21:55:25.612Z,100.00
2022-11-08T21:57:55.048Z,100.00
2022-11-08T22:00:25.925Z,100.00
2022-11-08T22:02:55.726Z,100.00
2022-11-08T22:05:25.206Z,100.00
2022-11-08T22:07:54.675Z,100.00
2022-11-08T22:10:24.137Z,100.00
2022-11-08T22:12:53.534Z,100.00
2022-11-08T22:15:22.920Z,100.00
2022-11-08T22:18:14.855Z,100.00
2022-11-08T22:21:07.220Z,100.00
2022-11-08T22:23:37.563Z,100.00
2022-11-08T22:26:07.509Z,100.00
2022-11-08T22:28:39.888Z,100.00
2022-11-08T22:31:09.334Z,100.00
2022-11-08T22:33:40.135Z,100.00
2022-11-08T22:36:11.631Z,100.00
2022-11-08T22:38:41.230Z,100.00
2022-11-08T22:41:10.853Z,100.00
2022-11-08T22:43:40.291Z,100.00
2022-11-08T22:46:09.758Z,100.00
2022-11-08T22:48:40.933Z,100.00
2022-11-08T22:51:10.860Z,100.00
2022-11-08T22:53:41.279Z,100.00
2022-11-08T22:56:12.107Z,100.00
2022-11-08T22:58:41.628Z,100.00
2022-11-08T23:01:14.951Z,100.00
2022-11-08T23:03:47.609Z,100.00
2022-11-08T23:06:17.365Z,100.00
2022-11-08T23:08:48.490Z,100.00
2022-11-08T23:11:35.033Z,100.00
2022-11-08T23:14:22.973Z,100.00
2022-11-08T23:16:52.371Z,100.00
2022-11-08T23:19:42.471Z,100.00
2022-11-08T23:22:32.681Z,100.00
2022-11-08T23:25:02.185Z,100.00
2022-11-08T23:27:49.865Z,100.00
2022-11-08T23:30:38.440Z,100.00
2022-11-08T23:33:08.177Z,100.00
2022-11-08T23:35:59.021Z,100.00
2022-11-08T23:38:28.488Z,100.00
2022-11-08T23:41:18.394Z,100.00
2022-11-08T23:44:05.373Z,100.00
2022-11-08T23:46:36.867Z,100.00
2022-11-08T23:49:06.752Z,100.00
2022-11-08T23:51:37.839Z,100.00
2022-11-08T23:54:07.305Z,100.00
2022-11-08T23:56:36.660Z,100.00
2022-11-08T23:59:06.256Z,100.00
